createdAt,value
2022-09-29T00:04:04.082Z,3.92
2022-09-29T00:09:06.778Z,3.85
2022-09-29T00:14:10.954Z,4.25
2022-09-29T00:19:13.553Z,3.22
2022-09-29T00:24:16.568Z,4.30
2022-09-29T00:29:20.557Z,4.32
2022-09-29T00:34:23.484Z,4.75
2022-09-29T00:39:26.360Z,4.47
2022-09-29T00:45:01.310Z,4.78
2022-09-29T00:50:08.292Z,3.05
2022-09-29T00:55:17.009Z,4.20
2022-09-29T01:00:21.117Z,4.40
2022-09-29T01:05:30.516Z,3.40
2022-09-29T01:10:33.116Z,4.10
2022-09-29T01:15:37.062Z,3.85
2022-09-29T01:20:50.851Z,3.50
2022-09-29T01:26:14.367Z,4.10
2022-09-29T01:31:25.276Z,4.22
2022-09-29T01:36:36.539Z,4.57
2022-09-29T01:41:44.966Z,4.50
2022-09-29T01:46:53.871Z,3.75
2022-09-29T01:52:01.493Z,4.40
2022-09-29T01:57:10.811Z,4.22
2022-09-29T02:02:21.434Z,4.32
2022-09-29T02:07:29.372Z,4.15
2022-09-29T02:12:36.527Z,4.30
2022-09-29T02:17:44.188Z,4.07
2022-09-29T02:22:48.110Z,4.90
2022-09-29T02:27:51.323Z,4.50
2022-09-29T02:32:55.276Z,5.00
2022-09-29T02:38:05.551Z,5.30
2022-09-29T02:43:25.905Z,4.60
2022-09-29T02:48:44.988Z,4.80
2022-09-29T02:54:05.379Z,5.03
2022-09-29T02:59:11.128Z,5.22
2022-09-29T03:04:15.706Z,4.85
2022-09-29T03:14:21.106Z,4.80
2022-09-29T03:19:25.372Z,5.15
2022-09-29T03:24:28.028Z,4.90
2022-09-29T03:29:30.756Z,4.55
2022-09-29T03:34:35.353Z,4.40
2022-09-29T03:44:40.402Z,4.60
2022-09-29T03:49:44.313Z,4.85
2022-09-29T03:54:46.931Z,4.78
2022-09-29T03:59:49.610Z,4.40
2022-09-29T04:04:53.570Z,5.00
2022-09-29T04:09:56.363Z,3.55
2022-09-29T04:14:58.925Z,5.68
2022-09-29T04:20:03.167Z,5.03
2022-09-29T04:25:06.528Z,4.00
2022-09-29T04:30:10.548Z,5.10
2022-09-29T04:35:14.390Z,5.25
2022-09-29T04:40:17.566Z,3.83
2022-09-29T04:45:20.246Z,5.10
2022-09-29T04:50:24.151Z,4.90
2022-09-29T04:55:27.006Z,5.45
2022-09-29T05:00:29.800Z,6.00
2022-09-29T05:05:34.120Z,5.78
2022-09-29T05:10:36.812Z,4.28
2022-09-29T05:15:39.426Z,5.13
2022-09-29T05:20:59.187Z,5.38
2022-09-29T05:26:08.833Z,5.65
2022-09-29T05:31:11.862Z,4.88
2022-09-29T05:36:15.841Z,6.75
2022-09-29T05:41:22.589Z,7.15
2022-09-29T05:46:25.144Z,7.25
2022-09-29T05:51:29.447Z,7.20
2022-09-29T05:56:32.123Z,5.55
2022-09-29T06:01:35.157Z,6.25
2022-09-29T06:06:40.213Z,5.70
2022-09-29T06:11:42.930Z,6.07
2022-09-29T06:16:45.784Z,5.68
2022-09-29T06:21:50.065Z,6.18
2022-09-29T06:26:53.085Z,4.57
2022-09-29T06:31:55.702Z,5.88
2022-09-29T06:37:17.268Z,5.90
2022-09-29T06:42:20.062Z,6.47
2022-09-29T06:47:23.007Z,6.00
2022-09-29T06:52:29.984Z,6.35
2022-09-29T06:57:33.053Z,8.13
2022-09-29T07:02:35.896Z,6.18
2022-09-29T07:07:40.077Z,5.60
2022-09-29T07:12:44.598Z,4.97
2022-09-29T07:17:47.567Z,5.57
2022-09-29T07:22:51.687Z,5.80
2022-09-29T07:27:54.516Z,5.18
2022-09-29T07:33:02.117Z,4.55
2022-09-29T07:38:06.898Z,4.57
2022-09-29T07:43:09.665Z,4.40
2022-09-29T07:48:12.210Z,4.78
2022-09-29T07:53:16.413Z,4.00
2022-09-29T07:58:18.946Z,4.38
2022-09-29T08:03:21.977Z,4.07
2022-09-29T08:08:27.545Z,3.40
2022-09-29T08:13:31.446Z,4.10
2022-09-29T08:18:36.092Z,2.97
2022-09-29T08:23:42.655Z,3.25
2022-09-29T08:28:47.347Z,2.78
2022-09-29T08:33:52.983Z,2.90
2022-09-29T08:38:58.978Z,2.17
2022-09-29T08:44:06.373Z,3.75
2022-09-29T08:49:28.866Z,3.40
2022-09-29T08:54:40.396Z,2.80
2022-09-29T08:59:44.586Z,5.18
2022-09-29T09:05:06.593Z,3.05
2022-09-29T09:10:23.108Z,3.10
2022-09-29T09:15:47.493Z,2.92
2022-09-29T09:20:54.444Z,3.35
2022-09-29T09:26:02.261Z,2.60
2022-09-29T09:31:10.740Z,3.67
2022-09-29T09:36:29.507Z,3.00
2022-09-29T09:41:38.420Z,3.33
2022-09-29T09:46:47.468Z,2.45
2022-09-29T09:51:57.268Z,2.30
2022-09-29T09:57:25.805Z,2.28
2022-09-29T10:02:31.076Z,2.00
2022-09-29T10:07:33.911Z,2.22
2022-09-29T10:12:38.175Z,2.28
2022-09-29T10:17:46.042Z,2.10
2022-09-29T10:22:51.177Z,2.10
2022-09-29T10:27:57.630Z,1.50
2022-09-29T10:33:04.354Z,1.30
2022-09-29T10:38:11.063Z,1.40
2022-09-29T10:43:25.620Z,1.40
2022-09-29T10:48:29.032Z,1.63
2022-09-29T10:53:38.114Z,1.58
2022-09-29T10:58:58.523Z,1.90
2022-09-29T11:04:08.182Z,1.50
2022-09-29T11:09:30.403Z,1.70
2022-09-29T11:14:42.985Z,1.80
2022-09-29T11:19:46.042Z,1.60
2022-09-29T11:30:20.848Z,1.50
2022-09-29T11:35:34.919Z,2.28
2022-09-29T11:40:52.164Z,1.52
2022-09-29T11:46:05.195Z,1.00
2022-09-29T11:51:16.051Z,1.10
2022-09-29T11:56:31.927Z,1.20
2022-09-29T12:01:52.550Z,1.30
2022-09-29T12:06:57.643Z,1.00
2022-09-29T12:12:25.769Z,1.40
2022-09-29T12:17:34.202Z,1.38
2022-09-29T12:22:39.154Z,1.17
2022-09-29T12:27:45.603Z,1.45
2022-09-29T12:32:53.752Z,1.13
2022-09-29T12:38:02.277Z,1.58
2022-09-29T12:43:12.957Z,1.58
2022-09-29T12:48:30.182Z,1.35
2022-09-29T12:53:36.865Z,1.40
2022-09-29T12:58:45.592Z,1.10
2022-09-29T13:04:15.393Z,1.92
2022-09-29T13:09:40.260Z,1.50
2022-09-29T13:14:55.360Z,1.45
2022-09-29T13:20:19.145Z,1.20
2022-09-29T13:25:26.782Z,0.95
2022-09-29T13:30:32.374Z,1.10
2022-09-29T13:35:42.606Z,0.95
2022-09-29T13:41:12.335Z,1.02
2022-09-29T13:46:28.741Z,1.27
2022-09-29T13:51:54.336Z,1.20
2022-09-29T13:57:05.611Z,1.30
2022-09-29T14:02:27.419Z,1.40
2022-09-29T14:07:41.496Z,1.08
2022-09-29T14:12:50.259Z,1.60
2022-09-29T14:17:58.622Z,1.00
2022-09-29T14:23:05.102Z,1.60
2022-09-29T14:28:13.542Z,1.65
2022-09-29T14:33:20.993Z,1.40
2022-09-29T14:38:29.032Z,1.55
2022-09-29T14:43:41.111Z,1.58
2022-09-29T14:49:14.610Z,1.60
2022-09-29T14:54:28.941Z,1.77
2022-09-29T14:59:48.376Z,1.73
2022-09-29T15:04:51.498Z,1.67
2022-09-29T15:09:57.617Z,1.70
2022-09-29T15:15:02.882Z,1.60
2022-09-29T15:20:16.703Z,1.52
2022-09-29T15:25:36.017Z,1.20
2022-09-29T15:30:38.931Z,1.40
2022-09-29T15:35:45.526Z,1.00
2022-09-29T15:40:54.388Z,1.20
2022-09-29T15:45:59.824Z,1.10
2022-09-29T15:51:04.165Z,1.75
2022-09-29T15:56:08.378Z,1.00
2022-09-29T16:01:13.828Z,1.20
2022-09-29T16:06:24.637Z,1.10
2022-09-29T16:11:32.625Z,1.00
2022-09-29T16:16:37.727Z,1.20
2022-09-29T16:21:42.157Z,1.00
2022-09-29T16:31:52.281Z,1.30
2022-09-29T16:36:56.443Z,1.33
2022-09-29T16:42:05.665Z,5.75
2022-09-29T16:47:16.136Z,3.13
2022-09-29T16:52:25.997Z,2.70
2022-09-29T16:57:34.185Z,3.95
2022-09-29T17:02:37.047Z,4.53
2022-09-29T17:07:42.367Z,4.97
2022-09-29T17:12:47.148Z,4.28
2022-09-29T17:17:51.837Z,5.28
2022-09-29T17:22:55.763Z,6.85
2022-09-29T17:28:15.144Z,13.93
2022-09-29T17:33:19.765Z,13.63
2022-09-29T17:43:33.486Z,6.65
2022-09-29T17:48:36.518Z,7.70
2022-09-29T17:53:41.508Z,9.82
2022-09-29T17:58:45.635Z,10.60
2022-09-29T18:03:48.755Z,10.15
2022-09-29T18:08:53.897Z,7.40
2022-09-29T18:13:57.898Z,6.43
2022-09-29T18:19:00.746Z,7.13
2022-09-29T18:24:03.266Z,8.60
2022-09-29T18:29:16.663Z,7.95
2022-09-29T18:34:22.344Z,7.00
2022-09-29T18:39:25.360Z,6.05
2022-09-29T18:44:33.400Z,9.23
2022-09-29T18:49:36.174Z,13.88
2022-09-29T18:54:38.963Z,11.95
2022-09-29T18:59:43.191Z,11.18
2022-09-29T19:04:47.139Z,9.63
2022-09-29T19:09:52.151Z,11.73
2022-09-29T19:14:56.698Z,11.20
2022-09-29T19:20:00.166Z,11.73
2022-09-29T19:25:02.901Z,10.52
2022-09-29T19:30:08.110Z,10.90
2022-09-29T19:35:14.142Z,11.18
2022-09-29T19:40:20.061Z,10.80
2022-09-29T19:45:24.030Z,11.57
2022-09-29T19:50:44.194Z,12.18
2022-09-29T19:55:47.321Z,12.32
2022-09-29T20:00:57.255Z,11.52
2022-09-29T20:06:00.969Z,11.15
2022-09-29T20:11:09.039Z,8.37
2022-09-29T20:16:14.559Z,9.65
2022-09-29T20:21:17.168Z,9.00
2022-09-29T20:26:20.731Z,8.70
2022-09-29T20:31:25.026Z,8.68
2022-09-29T20:36:27.817Z,8.10
2022-09-29T20:41:30.452Z,12.23
2022-09-29T20:46:35.664Z,15.93
2022-09-29T20:51:38.649Z,19.05
2022-09-29T20:56:42.622Z,16.92
2022-09-29T21:01:48.622Z,12.27
2022-09-29T21:06:53.257Z,11.05
2022-09-29T21:11:57.109Z,7.85
2022-09-29T21:17:01.630Z,10.32
2022-09-29T21:22:04.567Z,10.85
2022-09-29T21:27:07.598Z,11.38
2022-09-29T21:32:11.906Z,11.23
2022-09-29T21:37:17.707Z,8.80
2022-09-29T21:42:20.266Z,10.73
2022-09-29T21:47:45.421Z,8.63
2022-09-29T21:52:48.233Z,8.13
2022-09-29T21:57:51.077Z,9.30
2022-09-29T22:02:55.343Z,8.75
2022-09-29T22:07:58.198Z,6.03
2022-09-29T22:13:00.714Z,6.85
2022-09-29T22:18:04.873Z,6.85
2022-09-29T22:23:07.703Z,7.55
2022-09-29T22:28:10.542Z,8.02
2022-09-29T22:33:15.133Z,7.80
2022-09-29T22:43:20.614Z,7.43
2022-09-29T22:48:24.803Z,6.88
2022-09-29T22:53:27.363Z,7.13
2022-09-29T22:58:29.931Z,6.85
2022-09-29T23:03:34.650Z,6.68
2022-09-29T23:08:38.278Z,6.53
2022-09-29T23:13:41.111Z,7.20
2022-09-29T23:18:46.507Z,6.97
2022-09-29T23:23:52.418Z,6.80
2022-09-29T23:28:56.510Z,6.75
2022-09-29T23:34:01.616Z,5.30
2022-09-29T23:39:14.819Z,5.95
2022-09-29T23:44:19.052Z,6.68
2022-09-29T23:49:24.652Z,5.70
2022-09-29T23:54:29.327Z,8.07
2022-09-29T23:59:32.102Z,8.07
